Hemingford, NE (69348)

8:24 AM MDT on August 31, 2016 (GMT -0600)
Panhandle Coop-Alliance | | Change Station
Active Advisory: Dense Fog Advisory

Elev 4140 ft 42.22 °N, 102.98 °W | Updated 10 minutes ago

Rain
Rain
61.6 °F
Feels Like 61.6 °F
N
0.0
Wind Variable Wind from NE
Gusts 1.0 mph

Today
High -- | Low -- °F
--% Chance of Precip.
Yesterday
High -- | Low -- °F
Precip. -- in
Pressure 30.26 in
Visibility 10.0 miles
Clouds Scattered Clouds 900 ft
Overcast 1700 ft
Dew Point 61 °F
Humidity 98%
Rainfall 0.00 in
Snow Depth Not available.
6:17 AM 7:26 PM
Waning Crescent, 1% visible
SPECI KAIA 311417Z AUTO 13003KT 10SM SCT009 OVC017 18/17 A3026 RMK AO2 T01780167
Pressure 30.26 in
Visibility 10.0 miles
Clouds Scattered Clouds 900 ft
Overcast 1700 ft
Dew Point 61 °F
Humidity 98%
Rainfall 0.00 in
Snow Depth Not available.
6:17 AM 7:26 PM
Waning Crescent, 1% visible
SPECI KAIA 311417Z AUTO 13003KT 10SM SCT009 OVC017 18/17 A3026 RMK AO2 T01780167

10-Day Weather Forecast

Almanac

Astronomy

Aug. 31, 2016 Rise Set
Actual Time
Civil Twilight
Nautical Twilight
Astronomical Twilight
Moon
Length of Visible Light
Length of Day
Tomorrow will be .
, % of the Moon is Illuminated

Today's Extremes

State Highs State Lows

Community

WunderPhotos

Upload Photos

1,936,091 photos uploaded!

WunderBlog® & News

Nearby

Air Quality

  Air Quality AQ Index Pollutant
Not available.

Snow Depth

Station Depth Elevation

Earthquake Activity

City Distance Mag. Time & Date
Minimum magnitude displayed is 2.5.

Coastal Water Temperatures

Place Temperature

Stations

Nearby Weather Stations

Station Location Temp. Windchill Dew Point Humidity Wind Precip. Elev Updated Type
                   

Watches & Warnings

Dense Fog Advisory
Issued: 3:57 AM MDT Aug. 31, 2016 – National Weather Service

... Dense fog advisory in effect until 9 am MDT this morning...

The National Weather Service in Cheyenne has issued a dense fog
advisory... which is in effect until 9 am MDT this morning.

* Timing... through 9am this morning.

* Visibility... widespread visibilities reduced under a half mile
with areas reduced under a quarter mile at times.

* Impacts... low visibilities will impact travel. Motorists should
allow extra time to reach their destination and use low beam
headlamps while traveling.

Precautionary/preparedness actions...

A dense fog advisory means visibilities will frequently be
reduced to less than one quarter mile. If driving... slow down...
use your headlights... and leave plenty of distance ahead of you.